Observations for BOURNEMOUTH AIRPORT, United Kingdom (EGHH)

EGHH 140820Z 28007KT 9999 SCT037 BKN048 19/15 Q1017 
EGHH 140750Z 27005KT 9999 SCT037 BKN045 18/15 Q1017 
EGHH 140720Z 27005KT 9999 BKN037 17/15 Q1016
EGHH 140650Z 27004KT 9999 BKN038 16/15 Q1016
EGHH 140620Z 27004KT 9999 FEW048 13/13 Q1016
EGHH 140550Z 27003KT 9999 FEW045 13/13 Q1016
EGHH 140520Z 27002KT 9000 FEW045 13/13 Q1016
EGHH 140450Z 31008KT 9999 FEW045 13/13 Q1015
EGHH 132250Z 31008KT CAVOK 16/14 Q1013  
EGHH 132220Z 30008KT CAVOK 17/14 Q1013  
EGHH 132150Z 31008KT CAVOK 17/14 Q1013  
EGHH 132120Z 31006KT CAVOK 17/14 Q1012  
EGHH 132050Z 30008KT CAVOK 18/14 Q1012  
EGHH 132020Z 30008KT CAVOK 18/15 Q1012  
EGHH 131950Z 30008KT 9999 FEW025 18/15 Q1011
EGHH 131920Z 31011KT 9999 FEW035 19/15 Q1011
EGHH 131850Z 31012KT 270V360 9999 FEW035 20/15 Q1010
EGHH 131820Z 31015KT 260V340 9999 FEW023 21/15 Q1010
EGHH 131750Z 31012KT 250V340 9999 FEW032 21/15 Q1009
EGHH 131720Z 30013KT 270V340 9999 FEW032 22/15 Q1009
EGHH 131650Z 30012KT 270V350 9999 FEW030 24/15 Q1009
EGHH 131620Z 31010KT 9999 FEW029 23/15 Q1009
EGHH 131550Z 28012KT 9999 FEW025 SCT034 24/16 Q1009 
EGHH 131520Z 28011KT 9999 SCT025 SCT029 23/16 Q1008 
EGHH 131450Z 26010KT 210V300 9999 FEW027 SCT033 22/16 Q1008 
EGHH 131420Z 26009KT 9999 SCT025 22/15 Q1008
EGHH 131350Z 26010KT 9999 FEW021 BKN044 23/17 Q1009 
EGHH 131320Z 29010KT 220V300 9999 SCT032 BKN044 22/14 Q1009 
EGHH 131220Z 28010KT 220V300 9999 SCT032 BKN048 22/15 Q1008 
EGHH 131150Z 28010KT 220V300 9999 FEW032 SCT047 23/14 Q1008 
EGHH 131120Z 30009KT 250V320 9999 FEW024 SCT047 21/15 Q1008 
EGHH 131050Z 30010KT 250V330 9999 FEW024 SCT048 21/15 Q1008 
EGHH 131020Z 27009KT 230V300 9999 SCT022 SCT046 21/15 Q1008 
EGHH 130950Z 29009KT 240V360 9999 SCT025 SCT043 22/16 Q1008 
EGHH 130920Z 32009KT 270V010 9999 SCT021 SCT045 20/14 Q1008 
EGHH 130850Z 32009KT 9999 SCT012 20/16 Q1007
EGHH 130820Z 31009KT 9999 SCT009 SCT048 18/16 Q1007 
EGHH 130750Z 30009KT 9999 BKN008 BKN048 17/16 Q1007